Aérodrome :
LOGIN :

S'inscrire | Disclaimer

   EN    FR    IT 

 










Légende :    VFR   VFR Marginal   IFR   IFR Intensif   IFR Très Intensif
Visi : 
Plafond : 
>= 8 km
>= 3000ft
5 à 8 km
1000 à 3000 ft
1500m à 5 km
500 à 1000 ft
800 à 1500m
200 à 500 ft
< 800m
< 200 ft
Symboles :   Orages  Brouillard  Fortes neiges  Fortes précipitations  Vent > 20 kt
SIGMETs :   Divers  Orages  Givrage  Turbulence  Onde Orograph.  Cendres Volcan.






- Altitude de l'aérodrome : 117 ft
- Code IATA : NWI


EGSH - Norwich

DERNIER METAR :
  • 221020Z 23004KT 190V260 9999 BKN035 10/08 Q1024

METARs EXPIRÉS :
  • 220950Z VRB03KT 9999 SCT036 10/08 Q1024 NOSIG
  • 220920Z VRB03KT 9999 SCT036 10/08 Q1024 NOSIG
  • 220850Z VRB03KT 9999 SCT036 09/08 Q1024 NOSIG
  • 220750Z VRB02KT 9999 SCT040 08/07 Q1023

TAF TAF EGSH
Valide du 22 à 09h jusqu'au 22 à 18h UTC


220757Z 2209/2218 VRB03KT 9999 SCT040
BECMG 2209/2211 24010KT
ATIS : +44 1603 420 640



MET'MAP, la Météo Aéronautique d'un coup d'oeil ! - Copyright ORBIFLY Décembre 2007 - Disclaimer

ORBIFLY MET'MAP TEAM :

Programmation & Développement : Alexandra Zaïnal
Conception & Développement : Baudouin d'Aumeries
Co-Programmation & Développement : Marc-Olivier Méhu
Soutien technique & logistique : Manuel Goepfert

Contact : metmap@orbifly.com




SOURCES & CREDITS :

   NOAA